Time;durP1;ratioP1;P1;durP2;ratioP2;P2;SDS_P1;SDS_P2;PMS_P1;PMS_P2;Temp;Humidity;BMP_temperature;BMP_pressure;BME280_temperature;BME280_humidity;BME280_pressure;Samples;Min_cycle;Max_cycle;Signal;HPM_P1;HPM_P2
2021/12/08 00:02:21;;;;;;;1.95;1.10;;;;;11.00;98922.00;;;;5030011;28;20192;-83
2021/12/08 00:04:48;;;;;;;2.95;0.98;;;;;11.10;98949.00;;;;5029770;28;20197;-84
2021/12/08 00:07:16;;;;;;;1.60;0.93;;;;;11.10;98948.00;;;;5029665;28;20189;-84
2021/12/08 00:10:01;;;;;;;1.90;1.10;;;;;11.10;98964.00;;;;5029455;28;20192;-85
2021/12/08 00:15:13;;;;;;;2.13;1.05;;;;;11.10;98961.00;;;;5012990;28;20693;-84
2021/12/08 00:17:42;;;;;;;3.72;1.27;;;;;11.10;98941.00;;;;5026319;28;20188;-84
2021/12/08 00:20:10;;;;;;;1.90;1.05;;;;;11.10;98930.00;;;;5030090;28;20204;-84
2021/12/08 00:22:37;;;;;;;2.40;0.98;;;;;11.10;98930.00;;;;5029502;28;20495;-84
2021/12/08 00:25:05;;;;;;;2.30;1.10;;;;;11.10;98929.00;;;;5029923;28;20208;-83
2021/12/08 00:27:33;;;;;;;2.47;0.90;;;;;11.10;98923.00;;;;5028919;28;20204;-83
2021/12/08 00:30:00;;;;;;;2.22;1.15;;;;;11.10;98930.00;;;;5030013;28;20204;-84
2021/12/08 00:32:30;;;;;;;2.28;1.17;;;;;11.20;98922.00;;;;5022803;28;20200;-84
2021/12/08 00:34:59;;;;;;;2.53;1.17;;;;;11.10;98915.00;;;;5029191;28;20260;-86
2021/12/08 00:37:27;;;;;;;1.40;1.10;;;;;11.20;98922.00;;;;5028835;28;20788;-84
2021/12/08 00:39:55;;;;;;;1.33;0.98;;;;;11.20;98918.00;;;;5029300;28;20303;-84
2021/12/08 00:42:23;;;;;;;4.82;1.13;;;;;11.20;98915.00;;;;5028668;28;20197;-84
2021/12/08 00:44:50;;;;;;;3.35;1.13;;;;;11.20;98906.00;;;;5028884;28;20200;-85
2021/12/08 00:47:18;;;;;;;2.47;1.17;;;;;11.20;98914.00;;;;5027423;28;20204;-85
2021/12/08 00:49:46;;;;;;;3.05;1.08;;;;;11.20;98923.00;;;;5025617;28;20197;-85
2021/12/08 00:52:15;;;;;;;2.85;1.25;;;;;11.20;98943.00;;;;5028873;28;20288;-86
2021/12/08 00:54:42;;;;;;;1.05;0.88;;;;;11.30;98948.00;;;;5026531;28;20228;-85
2021/12/08 00:57:10;;;;;;;1.55;1.02;;;;;11.30;98946.00;;;;5028868;28;20681;-85
2021/12/08 00:59:38;;;;;;;1.80;0.95;;;;;11.30;98945.00;;;;5028548;28;20211;-86
2021/12/08 01:02:06;;;;;;;1.95;1.10;;;;;11.30;98937.00;;;;5028665;28;20200;-85
2021/12/08 01:04:34;;;;;;;2.70;1.38;;;;;11.40;98928.00;;;;5025117;28;20228;-85
2021/12/08 01:07:02;;;;;;;4.00;1.38;;;;;11.40;98947.00;;;;5018959;28;20228;-85
2021/12/08 01:09:32;;;;;;;1.88;1.25;;;;;11.40;98942.00;;;;5028417;28;20205;-86
2021/12/08 01:12:02;;;;;;;2.80;1.33;;;;;11.40;98961.00;;;;5028402;28;20204;-85
2021/12/08 01:14:29;;;;;;;1.50;1.20;;;;;11.50;98966.00;;;;5028371;28;20228;-85
2021/12/08 01:16:57;;;;;;;2.70;1.55;;;;;11.50;98957.00;;;;5028505;28;20204;-85
2021/12/08 01:19:25;;;;;;;1.98;1.25;;;;;11.50;98943.00;;;;5028348;28;20211;-85
2021/12/08 01:21:53;;;;;;;3.13;1.08;;;;;11.50;98956.00;;;;5027152;28;20208;-85
2021/12/08 01:24:21;;;;;;;1.88;1.02;;;;;11.60;98975.00;;;;5027510;28;20189;-85
2021/12/08 01:26:50;;;;;;;2.03;1.10;;;;;11.60;98965.00;;;;5028861;28;20207;-85
2021/12/08 01:29:17;;;;;;;4.13;1.13;;;;;11.60;98969.00;;;;5028045;28;20207;-85
2021/12/08 01:31:45;;;;;;;2.35;1.20;;;;;11.60;98976.00;;;;5028152;28;20204;-84
2021/12/08 01:34:13;;;;;;;1.88;1.10;;;;;11.70;98987.00;;;;5028872;28;20315;-84
2021/12/08 01:36:41;;;;;;;1.70;1.20;;;;;11.70;98974.00;;;;5028341;28;20250;-85
2021/12/08 01:39:09;;;;;;;3.88;1.27;;;;;11.70;98970.00;;;;5022304;28;20667;-85
2021/12/08 01:41:37;;;;;;;2.03;1.00;;;;;11.80;98970.00;;;;5028014;28;20232;-84
2021/12/08 01:46:53;;;;;;;2.08;1.10;;;;;11.80;98966.00;;;;5028131;28;20198;-84
2021/12/08 01:49:21;;;;;;;2.15;1.13;;;;;11.80;98973.00;;;;5027131;28;20638;-84
2021/12/08 01:51:49;;;;;;;1.83;1.13;;;;;11.80;98974.00;;;;5027269;28;20196;-84
2021/12/08 01:54:17;;;;;;;1.98;0.88;;;;;11.80;98979.00;;;;5027113;28;20231;-84
2021/12/08 01:56:45;;;;;;;1.58;1.10;;;;;11.90;98979.00;;;;5020027;28;20274;-84
2021/12/08 01:59:13;;;;;;;2.55;1.30;;;;;11.90;98988.00;;;;5028289;28;20200;-85
2021/12/08 02:01:43;;;;;;;1.27;0.85;;;;;11.90;98984.00;;;;5027215;28;20205;-84
2021/12/08 02:04:10;;;;;;;1.80;0.95;;;;;11.90;98983.00;;;;5017425;28;20212;-83
2021/12/08 02:06:40;;;;;;;1.10;0.80;;;;;12.00;98991.00;;;;5027187;28;20223;-84
2021/12/08 02:09:10;;;;;;;1.92;1.10;;;;;12.00;98995.00;;;;5027653;28;20203;-84
2021/12/08 02:11:38;;;;;;;1.30;0.82;;;;;12.00;98998.00;;;;5026603;28;20691;-84
2021/12/08 02:14:06;;;;;;;2.42;0.88;;;;;12.00;98996.00;;;;5011802;28;20332;-84
2021/12/08 02:16:35;;;;;;;1.20;0.95;;;;;12.00;99001.00;;;;5009916;28;20215;-84
2021/12/08 02:19:04;;;;;;;2.05;0.80;;;;;12.00;98995.00;;;;5027869;28;20215;-85
2021/12/08 02:21:36;;;;;;;1.50;0.90;;;;;12.00;99000.00;;;;5026134;28;20196;-83
2021/12/08 02:24:05;;;;;;;1.40;0.70;;;;;12.10;99005.00;;;;5028009;28;20200;-83
2021/12/08 02:26:34;;;;;;;2.80;1.02;;;;;12.10;99012.00;;;;5025782;28;20211;-83
2021/12/08 02:29:05;;;;;;;1.55;0.68;;;;;12.10;99002.00;;;;5028466;28;20208;-84
2021/12/08 02:31:40;;;;;;;3.15;0.60;;;;;12.10;99005.00;;;;5013747;28;20192;-84
2021/12/08 02:47:55;;;;;;;0.80;0.60;;;;;12.20;99012.00;;;;5025159;28;20725;-84
2021/12/08 02:50:25;;;;;;;0.90;0.80;;;;;12.20;99019.00;;;;5028099;28;20577;-83
2021/12/08 02:52:55;;;;;;;1.17;0.68;;;;;12.20;99009.00;;;;5027034;28;20201;-84
2021/12/08 02:55:22;;;;;;;2.55;0.70;;;;;12.20;99009.00;;;;5026401;28;20247;-84
2021/12/08 02:57:50;;;;;;;1.33;0.82;;;;;12.20;99020.00;;;;5027215;28;20196;-85
2021/12/08 03:00:23;;;;;;;3.05;0.80;;;;;12.20;99022.00;;;;5027329;28;20200;-84
2021/12/08 03:02:51;;;;;;;1.17;0.80;;;;;12.20;99031.00;;;;5026621;28;20287;-85
2021/12/08 03:05:19;;;;;;;1.85;0.88;;;;;12.30;99032.00;;;;5021551;28;20200;-84
2021/12/08 03:07:47;;;;;;;1.73;1.00;;;;;12.30;99038.00;;;;5027373;28;20610;-85
2021/12/08 03:10:19;;;;;;;1.48;1.08;;;;;12.30;99035.00;;;;5027598;28;20207;-85
2021/12/08 03:12:46;;;;;;;1.25;0.80;;;;;12.30;99036.00;;;;5026105;28;20215;-84
2021/12/08 03:15:15;;;;;;;1.48;0.95;;;;;12.30;99030.00;;;;5027563;28;20224;-83
2021/12/08 03:17:43;;;;;;;2.10;1.00;;;;;12.30;99033.00;;;;5026220;28;20197;-84
2021/12/08 03:20:14;;;;;;;2.92;1.08;;;;;12.30;99034.00;;;;5026707;28;20216;-84
2021/12/08 03:22:46;;;;;;;2.33;1.00;;;;;12.30;99030.00;;;;5022763;28;20209;-84
2021/12/08 03:25:19;;;;;;;1.08;0.70;;;;;12.30;99032.00;;;;5026877;28;20583;-84
2021/12/08 03:27:52;;;;;;;3.25;1.30;;;;;12.40;99049.00;;;;5026567;28;20204;-84
2021/12/08 03:30:25;;;;;;;1.15;0.65;;;;;12.40;99051.00;;;;5027026;28;20197;-84
2021/12/08 03:32:56;;;;;;;2.10;1.20;;;;;12.40;99051.00;;;;5029227;28;20207;-84
2021/12/08 03:35:25;;;;;;;2.05;0.95;;;;;12.40;99052.00;;;;5029813;28;20220;-84
2021/12/08 03:37:52;;;;;;;2.88;1.33;;;;;12.40;99050.00;;;;5025234;28;20208;-83
2021/12/08 03:40:25;;;;;;;1.60;0.93;;;;;12.40;99047.00;;;;5028977;28;20629;-83
2021/12/08 03:42:57;;;;;;;1.33;0.75;;;;;12.40;99043.00;;;;5030389;28;20200;-84
2021/12/08 03:45:29;;;;;;;1.75;1.00;;;;;12.40;99043.00;;;;5029939;28;20686;-84
2021/12/08 03:48:02;;;;;;;1.10;0.70;;;;;12.40;99052.00;;;;5029770;28;20196;-84
2021/12/08 03:50:31;;;;;;;1.35;1.02;;;;;12.50;99052.00;;;;5029993;28;20199;-83
2021/12/08 03:52:59;;;;;;;4.20;1.30;;;;;12.50;99064.00;;;;5029318;28;20543;-84
2021/12/08 03:55:28;;;;;;;2.30;1.17;;;;;12.50;99052.00;;;;5028210;28;20232;-84
2021/12/08 03:57:55;;;;;;;3.38;1.05;;;;;12.50;99056.00;;;;5030104;28;20212;-84
2021/12/08 04:00:25;;;;;;;1.65;1.10;;;;;12.50;99064.00;;;;5029669;28;20200;-84
2021/12/08 04:02:53;;;;;;;1.52;0.80;;;;;12.50;99056.00;;;;5029425;28;20205;-84
2021/12/08 04:05:31;;;;;;;2.28;1.20;;;;;12.50;99070.00;;;;5029265;28;20204;-84
2021/12/08 04:08:03;;;;;;;2.13;1.15;;;;;12.50;99075.00;;;;5030262;28;20197;-84
2021/12/08 04:10:32;;;;;;;2.78;1.27;;;;;12.50;99085.00;;;;5028498;28;20204;-85
2021/12/08 04:13:00;;;;;;;2.00;0.90;;;;;12.50;99086.00;;;;5014934;28;20697;-84
2021/12/08 04:15:28;;;;;;;2.28;0.80;;;;;12.50;99082.00;;;;5025302;28;20224;-85
2021/12/08 04:17:56;;;;;;;1.55;0.80;;;;;12.50;99084.00;;;;5029797;28;20184;-85
2021/12/08 04:20:30;;;;;;;2.13;1.15;;;;;12.50;99090.00;;;;5029215;28;20203;-84
2021/12/08 04:22:59;;;;;;;1.92;0.70;;;;;12.50;99097.00;;;;5029560;28;20201;-84
2021/12/08 04:25:33;;;;;;;2.17;0.98;;;;;12.50;99108.00;;;;5029098;28;20184;-84
2021/12/08 04:28:06;;;;;;;4.07;1.00;;;;;12.40;99106.00;;;;5029260;28;20207;-84
2021/12/08 04:30:37;;;;;;;3.30;0.88;;;;;12.50;99111.00;;;;5025111;28;20200;-85
2021/12/08 04:33:05;;;;;;;1.05;0.95;;;;;12.50;99113.00;;;;5029471;28;20216;-85
2021/12/08 04:35:32;;;;;;;1.67;0.93;;;;;12.50;99114.00;;;;5028746;28;20601;-84
2021/12/08 04:38:04;;;;;;;1.83;0.75;;;;;12.50;99110.00;;;;5029149;28;20203;-84
2021/12/08 04:40:39;;;;;;;2.33;0.68;;;;;12.50;99115.00;;;;5028512;28;20220;-84
2021/12/08 04:43:17;;;;;;;4.40;0.95;;;;;12.50;99107.00;;;;5029532;28;20588;-84
2021/12/08 04:45:57;;;;;;;1.42;0.80;;;;;12.50;99116.00;;;;5024089;28;20286;-84
2021/12/08 04:48:39;;;;;;;2.40;0.82;;;;;12.50;99125.00;;;;5009180;28;20275;-84
2021/12/08 04:51:36;;;;;;;1.20;0.63;;;;;12.50;99119.00;;;;5012316;28;20658;-84
2021/12/08 05:02:34;;;;;;;2.22;0.73;;;;;12.40;99117.00;;;;5027727;28;20211;-84
2021/12/08 05:05:15;;;;;;;2.13;0.65;;;;;12.40;99125.00;;;;5028126;28;20203;-84
2021/12/08 05:07:54;;;;;;;1.60;0.80;;;;;12.40;99125.00;;;;5028482;28;20702;-84
2021/12/08 05:10:27;;;;;;;4.20;0.93;;;;;12.30;99123.00;;;;5028426;28;20201;-85
2021/12/08 05:12:56;;;;;;;1.70;0.60;;;;;12.30;99119.00;;;;5028464;28;20197;-85
2021/12/08 05:15:27;;;;;;;0.93;0.55;;;;;12.30;99109.00;;;;5021640;28;20220;-85
2021/12/08 05:17:58;;;;;;;3.30;0.90;;;;;12.20;99124.00;;;;5026077;28;20642;-84
2021/12/08 05:20:37;;;;;;;1.50;0.65;;;;;12.20;99131.00;;;;5020798;28;20204;-84
2021/12/08 05:23:09;;;;;;;3.63;0.60;;;;;12.20;99147.00;;;;5027615;28;20246;-84
2021/12/08 05:25:39;;;;;;;3.50;0.80;;;;;12.20;99140.00;;;;5021919;28;20306;-85
2021/12/08 05:28:11;;;;;;;3.15;0.80;;;;;12.20;99135.00;;;;5028237;28;20189;-85
2021/12/08 05:30:43;;;;;;;1.13;0.43;;;;;12.20;99146.00;;;;5027916;28;20679;-84
2021/12/08 05:33:11;;;;;;;2.90;0.63;;;;;12.20;99138.00;;;;5027649;28;20208;-85
2021/12/08 05:35:40;;;;;;;1.80;0.68;;;;;12.20;99137.00;;;;5027520;28;20246;-85
2021/12/08 05:38:08;;;;;;;2.42;0.70;;;;;12.20;99135.00;;;;5012057;28;20828;-85
2021/12/08 05:40:40;;;;;;;2.08;0.55;;;;;12.10;99134.00;;;;5021722;28;20278;-86
2021/12/08 05:43:12;;;;;;;3.97;0.70;;;;;12.10;99140.00;;;;5027821;28;20200;-85
2021/12/08 05:45:42;;;;;;;2.17;1.17;;;;;12.10;99125.00;;;;5018641;28;20215;-86
2021/12/08 05:48:09;;;;;;;1.50;0.80;;;;;12.00;99127.00;;;;5028029;28;20203;-85
2021/12/08 05:50:40;;;;;;;1.35;0.70;;;;;12.00;99127.00;;;;5028347;28;20559;-86
2021/12/08 05:53:07;;;;;;;2.03;0.70;;;;;12.00;99128.00;;;;5027327;28;20196;-85
2021/12/08 05:55:36;;;;;;;3.85;1.15;;;;;11.90;99129.00;;;;5025649;28;20234;-85
2021/12/08 05:58:05;;;;;;;1.10;0.50;;;;;11.90;99148.00;;;;5027745;28;20200;-85
2021/12/08 06:00:44;;;;;;;1.48;0.55;;;;;11.80;99147.00;;;;5028347;28;20203;-85
2021/12/08 06:03:12;;;;;;;3.10;0.77;;;;;11.80;99151.00;;;;5028344;28;20714;-85
2021/12/08 06:05:41;;;;;;;3.00;0.60;;;;;11.70;99163.00;;;;5028133;28;20588;-84
2021/12/08 06:08:08;;;;;;;1.20;0.52;;;;;11.70;99168.00;;;;5027655;28;20192;-84
2021/12/08 06:10:38;;;;;;;2.60;0.68;;;;;11.60;99180.00;;;;5026697;28;20335;-85
2021/12/08 06:13:09;;;;;;;3.40;0.57;;;;;11.60;99186.00;;;;5028426;28;20208;-84
2021/12/08 06:15:38;;;;;;;2.53;0.75;;;;;11.50;99178.00;;;;5027426;28;20231;-85
2021/12/08 06:18:07;;;;;;;2.15;0.50;;;;;11.50;99172.00;;;;5021396;28;20206;-84
2021/12/08 06:20:35;;;;;;;5.22;0.90;;;;;11.50;99179.00;;;;5027994;28;20201;-84
2021/12/08 06:23:04;;;;;;;1.45;0.50;;;;;11.40;99178.00;;;;5025966;28;20211;-87
2021/12/08 06:25:31;;;;;;;2.25;0.77;;;;;11.40;99177.00;;;;5026112;28;20196;-86
2021/12/08 06:27:58;;;;;;;1.95;0.22;;;;;11.40;99188.00;;;;5027376;28;20219;-85
2021/12/08 06:30:31;;;;;;;3.63;0.75;;;;;11.30;99197.00;;;;5027668;28;20215;-86
2021/12/08 06:32:58;;;;;;;2.55;0.50;;;;;11.30;99200.00;;;;5026652;28;20539;-86
2021/12/08 06:35:32;;;;;;;1.60;0.45;;;;;11.20;99192.00;;;;5027781;28;20717;-85
2021/12/08 06:37:59;;;;;;;3.97;0.50;;;;;11.20;99199.00;;;;5024962;28;20192;-86
2021/12/08 06:40:30;;;;;;;4.18;0.93;;;;;11.20;99191.00;;;;5026607;28;20236;-84
2021/12/08 06:43:00;;;;;;;1.23;0.30;;;;;11.10;99198.00;;;;5027938;28;20196;-83
2021/12/08 06:45:32;;;;;;;4.18;0.63;;;;;11.10;99191.00;;;;5022408;28;20189;-82
2021/12/08 06:48:03;;;;;;;3.17;0.30;;;;;11.10;99185.00;;;;5030161;28;20196;-83
2021/12/08 06:50:37;;;;;;;4.35;0.80;;;;;11.00;99186.00;;;;5029196;28;20211;-84
2021/12/08 06:53:05;;;;;;;2.90;0.60;;;;;11.10;99188.00;;;;5027852;28;20204;-83
2021/12/08 06:55:35;;;;;;;1.27;0.60;;;;;11.00;99196.00;;;;5026169;28;20231;-81
2021/12/08 06:58:07;;;;;;;4.68;0.73;;;;;11.00;99208.00;;;;5027448;28;20200;-82
2021/12/08 07:00:48;;;;;;;1.27;0.45;;;;;11.00;99202.00;;;;5028303;28;20223;-83
2021/12/08 07:03:32;;;;;;;4.45;0.70;;;;;11.00;99218.00;;;;5014782;28;20209;-85
2021/12/08 07:06:10;;;;;;;2.47;0.50;;;;;10.90;99224.00;;;;5027291;28;20588;-85
2021/12/08 07:08:43;;;;;;;6.30;0.73;;;;;10.90;99228.00;;;;5030435;28;20196;-84
2021/12/08 07:11:12;;;;;;;1.13;0.50;;;;;10.90;99221.00;;;;5032629;28;20203;-88
2021/12/08 07:13:39;;;;;;;3.53;0.65;;;;;10.90;99229.00;;;;5031888;28;20202;-87
2021/12/08 07:16:10;;;;;;;3.00;0.45;;;;;10.90;99230.00;;;;5032104;28;20224;-84
2021/12/08 07:18:43;;;;;;;2.03;0.60;;;;;10.90;99235.00;;;;5028039;28;20216;-82
2021/12/08 07:21:13;;;;;;;2.30;0.65;;;;;10.80;99241.00;;;;5031554;28;20196;-82
2021/12/08 07:23:44;;;;;;;3.35;0.40;;;;;10.80;99242.00;;;;5029403;28;20838;-82
2021/12/08 07:26:16;;;;;;;1.80;0.47;;;;;10.80;99259.00;;;;5014625;28;20200;-82
2021/12/08 07:28:44;;;;;;;3.13;0.60;;;;;10.80;99265.00;;;;5031016;28;20272;-83
2021/12/08 07:31:18;;;;;;;4.55;0.90;;;;;10.80;99257.00;;;;5030978;28;20208;-82
2021/12/08 07:33:45;;;;;;;3.28;0.95;;;;;10.80;99265.00;;;;5028769;28;20207;-82
2021/12/08 07:36:17;;;;;;;2.35;0.68;;;;;10.80;99269.00;;;;5022423;28;20247;-83
2021/12/08 07:38:47;;;;;;;2.15;0.47;;;;;10.80;99282.00;;;;5017852;28;20287;-82
2021/12/08 07:41:19;;;;;;;2.58;0.60;;;;;10.80;99291.00;;;;5031369;28;20216;-81
2021/12/08 07:43:50;;;;;;;5.07;0.90;;;;;10.80;99283.00;;;;5030340;28;20573;-83
2021/12/08 07:46:23;;;;;;;2.88;0.70;;;;;10.80;99279.00;;;;5030619;28;20203;-82
2021/12/08 07:48:53;;;;;;;6.65;1.13;;;;;10.80;99286.00;;;;5029530;28;20188;-84
2021/12/08 07:51:25;;;;;;;1.83;0.50;;;;;10.80;99269.00;;;;5017472;28;20231;-81
2021/12/08 07:53:52;;;;;;;1.48;0.50;;;;;10.80;99265.00;;;;5016559;28;20226;-81
2021/12/08 07:56:23;;;;;;;3.80;0.73;;;;;10.70;99266.00;;;;5029430;28;20228;-81
2021/12/08 07:58:53;;;;;;;3.75;0.80;;;;;10.80;99254.00;;;;5026772;28;20192;-82
2021/12/08 08:01:24;;;;;;;1.75;0.45;;;;;10.70;99259.00;;;;5027849;28;20196;-82
2021/12/08 08:03:52;;;;;;;4.82;0.95;;;;;10.80;99257.00;;;;5031224;28;20188;-82
2021/12/08 08:06:24;;;;;;;1.38;0.43;;;;;10.70;99256.00;;;;5029405;28;20204;-82
2021/12/08 08:08:52;;;;;;;1.15;0.63;;;;;10.70;99272.00;;;;5029612;28;20196;-82
2021/12/08 08:11:23;;;;;;;3.80;1.13;;;;;10.70;99277.00;;;;5023081;28;20201;-82
2021/12/08 08:13:51;;;;;;;3.08;0.70;;;;;10.80;99269.00;;;;5022769;28;20583;-83
2021/12/08 08:16:22;;;;;;;4.38;0.80;;;;;10.70;99269.00;;;;5028002;28;20220;-82
2021/12/08 08:18:56;;;;;;;2.67;0.60;;;;;10.70;99257.00;;;;5028175;28;20585;-83
2021/12/08 08:21:28;;;;;;;6.65;0.88;;;;;10.70;99252.00;;;;5028843;28;20726;-83
2021/12/08 08:23:56;;;;;;;2.80;0.50;;;;;10.70;99251.00;;;;5028570;28;20204;-84
2021/12/08 08:26:23;;;;;;;1.90;0.65;;;;;10.70;99258.00;;;;5026396;28;20700;-82
2021/12/08 08:28:52;;;;;;;2.45;0.60;;;;;10.70;99256.00;;;;5026447;28;22110;-83
2021/12/08 08:31:22;;;;;;;1.15;0.52;;;;;10.70;99261.00;;;;5027627;28;20595;-83
2021/12/08 08:33:50;;;;;;;1.83;0.65;;;;;10.80;99264.00;;;;5021898;28;20670;-83
2021/12/08 08:36:23;;;;;;;4.47;0.38;;;;;10.80;99275.00;;;;5029512;28;20227;-82
2021/12/08 08:38:56;;;;;;;1.58;0.60;;;;;10.70;99275.00;;;;5029508;28;20634;-82
2021/12/08 08:41:26;;;;;;;3.10;0.60;;;;;10.80;99259.00;;;;5028322;28;20221;-82
2021/12/08 08:43:56;;;;;;;2.60;1.00;;;;;10.80;99271.00;;;;5025070;28;20193;-83
2021/12/08 08:46:26;;;;;;;4.90;0.98;;;;;10.80;99273.00;;;;5028973;28;20208;-83
2021/12/08 08:48:56;;;;;;;3.85;1.00;;;;;10.80;99286.00;;;;5028739;28;20197;-81
2021/12/08 08:51:28;;;;;;;5.38;0.50;;;;;10.80;99290.00;;;;5026003;28;20196;-82
2021/12/08 08:54:00;;;;;;;1.88;0.40;;;;;10.80;99300.00;;;;5026236;28;20315;-83
2021/12/08 08:56:31;;;;;;;2.63;0.65;;;;;10.80;99300.00;;;;5026555;28;20251;-83
2021/12/08 08:59:12;;;;;;;1.25;0.50;;;;;10.80;99298.00;;;;5028777;28;20193;-83
2021/12/08 09:01:44;;;;;;;3.92;0.75;;;;;10.90;99296.00;;;;5024294;28;20258;-82
2021/12/08 09:04:16;;;;;;;2.22;0.68;;;;;10.90;99296.00;;;;5029390;28;20685;-83
2021/12/08 09:06:48;;;;;;;0.98;0.30;;;;;10.90;99292.00;;;;5028999;28;20831;-84
2021/12/08 09:09:28;;;;;;;1.20;0.45;;;;;10.90;99290.00;;;;5028315;28;20200;-83
2021/12/08 09:12:00;;;;;;;3.20;0.85;;;;;11.00;99287.00;;;;5029123;28;20200;-84
2021/12/08 09:14:30;;;;;;;0.93;0.40;;;;;11.00;99289.00;;;;5028314;28;20204;-83
2021/12/08 09:17:01;;;;;;;4.25;0.80;;;;;11.00;99286.00;;;;5017602;28;20278;-84
2021/12/08 09:19:33;;;;;;;1.85;0.63;;;;;11.10;99291.00;;;;5021120;28;20189;-82
2021/12/08 09:22:04;;;;;;;3.38;1.00;;;;;11.10;99296.00;;;;5028543;28;20670;-83
2021/12/08 09:24:44;;;;;;;2.55;0.50;;;;;11.10;99298.00;;;;5026614;28;20203;-83
2021/12/08 09:27:13;;;;;;;2.35;0.60;;;;;11.10;99312.00;;;;5028867;28;20266;-84
2021/12/08 09:29:45;;;;;;;1.60;0.52;;;;;11.10;99306.00;;;;5028019;28;20200;-83
2021/12/08 09:32:18;;;;;;;1.80;0.55;;;;;11.10;99296.00;;;;5025969;28;20224;-83
2021/12/08 09:34:55;;;;;;;4.55;0.75;;;;;11.10;99311.00;;;;5027194;28;20208;-83
2021/12/08 09:37:27;;;;;;;4.28;0.90;;;;;11.20;99317.00;;;;5017578;28;20303;-84
2021/12/08 09:39:58;;;;;;;5.82;1.58;;;;;11.20;99315.00;;;;5027967;28;20204;-83
2021/12/08 09:42:29;;;;;;;4.65;0.80;;;;;11.20;99319.00;;;;5026956;28;20279;-81
2021/12/08 09:44:59;;;;;;;2.30;0.55;;;;;11.30;99323.00;;;;5027392;28;20207;-82
2021/12/08 09:47:29;;;;;;;1.02;0.43;;;;;11.30;99317.00;;;;5026150;28;20204;-83
2021/12/08 09:49:57;;;;;;;6.38;0.90;;;;;11.30;99316.00;;;;5027473;28;20204;-81
2021/12/08 09:52:28;;;;;;;2.17;0.70;;;;;11.30;99330.00;;;;5018251;28;20205;-81
2021/12/08 09:54:57;;;;;;;3.47;0.90;;;;;11.40;99323.00;;;;5027787;28;20274;-82
2021/12/08 09:57:25;;;;;;;1.48;0.40;;;;;11.40;99323.00;;;;5026947;28;20724;-81
2021/12/08 09:59:54;;;;;;;3.78;0.85;;;;;11.50;99318.00;;;;5027560;28;20219;-82
2021/12/08 10:02:29;;;;;;;2.17;0.35;;;;;11.50;99321.00;;;;5027371;28;20208;-81
2021/12/08 10:04:57;;;;;;;2.90;0.60;;;;;11.50;99308.00;;;;5023236;28;20196;-81
2021/12/08 10:07:26;;;;;;;2.17;0.65;;;;;11.50;99308.00;;;;5026252;28;20196;-82
2021/12/08 10:09:55;;;;;;;1.17;0.47;;;;;11.60;99310.00;;;;5024276;28;20208;-81
2021/12/08 10:12:24;;;;;;;0.40;0.25;;;;;11.60;99320.00;;;;5027289;28;20199;-82
2021/12/08 10:14:52;;;;;;;3.35;0.85;;;;;11.60;99333.00;;;;5027570;28;20211;-82
2021/12/08 10:17:20;;;;;;;2.17;0.68;;;;;11.70;99326.00;;;;5027093;28;20224;-82
2021/12/08 10:20:07;;;;;;;2.78;0.90;;;;;11.60;99323.00;;;;5027986;28;20204;-82
2021/12/08 10:22:35;;;;;;;1.83;0.50;;;;;11.80;99321.00;;;;5025659;28;20199;-83
2021/12/08 10:25:07;;;;;;;2.80;0.60;;;;;11.80;99314.00;;;;5028791;28;20280;-82
2021/12/08 10:28:06;;;;;;;3.22;0.60;;;;;11.80;99323.00;;;;5016245;28;20211;-82
2021/12/08 10:30:38;;;;;;;3.35;0.60;;;;;11.90;99333.00;;;;5024798;28;20196;-81
2021/12/08 10:33:36;;;;;;;1.13;0.80;;;;;12.00;99337.00;;;;5028813;28;20191;-82
2021/12/08 10:36:17;;;;;;;2.08;0.45;;;;;12.10;99333.00;;;;5026010;28;20227;-82
2021/12/08 10:38:45;;;;;;;1.65;0.60;;;;;12.20;99334.00;;;;5025991;28;20196;-80
2021/12/08 10:41:13;;;;;;;4.85;0.70;;;;;12.20;99324.00;;;;5027431;28;20219;-81
2021/12/08 10:43:41;;;;;;;2.90;0.70;;;;;12.30;99328.00;;;;5027046;28;20211;-82
2021/12/08 10:46:11;;;;;;;2.10;0.63;;;;;12.30;99322.00;;;;5030151;28;20207;-81
2021/12/08 10:48:44;;;;;;;1.05;0.45;;;;;12.40;99340.00;;;;5022988;28;20192;-81
2021/12/08 10:54:26;;;;;;;1.02;0.63;;;;;12.40;99332.00;;;;5019739;28;20601;-82
2021/12/08 10:56:59;;;;;;;3.15;0.65;;;;;12.60;99353.00;;;;5029249;28;20220;-82
2021/12/08 10:59:28;;;;;;;2.17;0.77;;;;;12.60;99340.00;;;;5028143;28;20208;-81
2021/12/08 11:01:59;;;;;;;2.35;0.68;;;;;12.60;99336.00;;;;5029056;28;20196;-81
2021/12/08 11:04:31;;;;;;;3.38;0.70;;;;;12.60;99342.00;;;;5028719;28;20196;-82
2021/12/08 11:07:06;;;;;;;2.15;0.60;;;;;12.60;99338.00;;;;5026752;28;20212;-82
2021/12/08 11:09:42;;;;;;;4.60;0.90;;;;;12.60;99334.00;;;;5029845;28;20196;-81
2021/12/08 11:12:11;;;;;;;1.45;0.50;;;;;12.70;99339.00;;;;5029766;28;20200;-82
2021/12/08 11:14:46;;;;;;;0.73;0.30;;;;;12.70;99343.00;;;;5029735;28;20863;-81
2021/12/08 11:17:34;;;;;;;2.53;0.55;;;;;12.70;99350.00;;;;5025606;28;20270;-83
2021/12/08 11:20:19;;;;;;;2.80;0.43;;;;;12.70;99349.00;;;;5024132;28;20197;-82
2021/12/08 11:23:00;;;;;;;1.48;0.60;;;;;12.70;99347.00;;;;5028278;28;20200;-82
2021/12/08 11:25:35;;;;;;;1.73;0.80;;;;;12.80;99362.00;;;;5021206;28;20192;-82
2021/12/08 11:28:29;;;;;;;4.07;1.10;;;;;12.80;99377.00;;;;5030517;28;20283;-82
2021/12/08 11:31:04;;;;;;;2.05;0.52;;;;;12.90;99376.00;;;;5029390;28;20621;-82
2021/12/08 11:33:31;;;;;;;1.13;0.43;;;;;12.90;99382.00;;;;5019945;28;20208;-81
2021/12/08 11:36:11;;;;;;;0.88;0.30;;;;;12.90;99383.00;;;;5030859;28;20208;-83
2021/12/08 11:38:40;;;;;;;2.38;0.70;;;;;13.00;99392.00;;;;5028380;28;20305;-82
2021/12/08 11:41:21;;;;;;;3.03;0.68;;;;;13.00;99384.00;;;;5030411;28;20219;-83
2021/12/08 11:43:54;;;;;;;1.20;0.50;;;;;13.10;99393.00;;;;5031565;28;20207;-82
2021/12/08 11:46:22;;;;;;;2.50;0.70;;;;;13.20;99387.00;;;;5028285;28;20224;-83
2021/12/08 11:49:03;;;;;;;3.03;0.60;;;;;13.20;99387.00;;;;5029088;28;20275;-83
2021/12/08 11:51:35;;;;;;;2.90;0.70;;;;;13.20;99386.00;;;;5027764;28;20305;-83
2021/12/08 11:54:03;;;;;;;1.30;0.60;;;;;13.30;99392.00;;;;5028803;28;20287;-82
2021/12/08 11:56:34;;;;;;;2.47;0.95;;;;;13.30;99388.00;;;;5029788;28;20718;-83
2021/12/08 11:59:05;;;;;;;3.35;0.80;;;;;13.30;99387.00;;;;5030277;28;20199;-83
2021/12/08 12:01:32;;;;;;;4.07;0.90;;;;;13.30;99379.00;;;;5030595;28;20216;-82
2021/12/08 12:04:00;;;;;;;0.98;0.60;;;;;13.30;99389.00;;;;5030307;28;20663;-80
2021/12/08 12:06:30;;;;;;;1.60;0.50;;;;;13.30;99396.00;;;;5030491;28;20199;-82
2021/12/08 12:08:59;;;;;;;2.83;0.57;;;;;13.30;99403.00;;;;5021707;28;20200;-82
2021/12/08 12:11:28;;;;;;;1.85;0.98;;;;;13.40;99397.00;;;;5030542;28;20188;-83
2021/12/08 12:13:57;;;;;;;1.17;0.50;;;;;13.40;99400.00;;;;5030510;28;20205;-81
2021/12/08 12:16:26;;;;;;;2.55;0.82;;;;;13.40;99399.00;;;;5029264;28;20200;-81
2021/12/08 12:18:56;;;;;;;0.98;0.60;;;;;13.40;99405.00;;;;5028653;28;20220;-82
2021/12/08 12:21:33;;;;;;;0.85;0.45;;;;;13.40;99408.00;;;;5030038;28;20200;-81
2021/12/08 12:24:24;;;;;;;1.45;0.60;;;;;13.30;99398.00;;;;5027891;28;20583;-81
2021/12/08 12:27:05;;;;;;;2.17;0.90;;;;;13.40;99415.00;;;;5028774;28;20196;-83
2021/12/08 12:29:45;;;;;;;1.35;0.50;;;;;13.50;99420.00;;;;5029523;28;20192;-81
2021/12/08 12:32:22;;;;;;;1.88;0.60;;;;;13.50;99421.00;;;;5023637;28;20206;-83
2021/12/08 12:34:53;;;;;;;0.95;0.50;;;;;13.60;99428.00;;;;5028805;28;20203;-83
2021/12/08 12:37:32;;;;;;;2.67;0.68;;;;;13.60;99435.00;;;;5016797;28;20306;-82
2021/12/08 12:40:01;;;;;;;0.85;0.60;;;;;13.70;99439.00;;;;5029697;28;20580;-83
2021/12/08 12:42:43;;;;;;;1.70;0.50;;;;;13.70;99438.00;;;;5028493;28;20200;-84
2021/12/08 12:45:13;;;;;;;2.88;0.60;;;;;13.80;99452.00;;;;5026626;28;20254;-81
2021/12/08 12:48:05;;;;;;;2.72;0.60;;;;;13.80;99459.00;;;;5029412;28;20197;-81
2021/12/08 12:50:51;;;;;;;2.65;0.80;;;;;13.80;99464.00;;;;5030759;28;20678;-84
2021/12/08 12:53:37;;;;;;;1.08;0.80;;;;;13.70;99463.00;;;;5023903;28;20201;-84
2021/12/08 12:56:04;;;;;;;3.35;0.80;;;;;13.80;99462.00;;;;5025130;28;20235;-83
2021/12/08 12:58:44;;;;;;;4.70;0.80;;;;;13.80;99461.00;;;;5025129;28;20248;-83
2021/12/08 13:01:12;;;;;;;1.75;1.13;;;;;14.00;99456.00;;;;5030839;28;20658;-83
2021/12/08 13:03:51;;;;;;;2.55;0.73;;;;;14.20;99457.00;;;;5018456;28;20545;-82
2021/12/08 13:06:43;;;;;;;4.13;0.60;;;;;14.40;99459.00;;;;5017182;28;20197;-83
2021/12/08 13:09:26;;;;;;;2.20;0.80;;;;;14.70;99458.00;;;;5019832;28;20203;-83
2021/12/08 13:12:08;;;;;;;2.65;0.57;;;;;14.90;99469.00;;;;5026031;28;20204;-83